Time;durP1;ratioP1;P1;durP2;ratioP2;P2;SDS_P1;SDS_P2;PMS_P1;PMS_P2;Temp;Humidity;BMP_temperature;BMP_pressure;BME280_temperature;BME280_humidity;BME280_pressure;Samples;Min_cycle;Max_cycle;Signal;HPM_P1;HPM_P2
2023/02/08 00:01:21;;;;;;;18.88;12.15;;;-2.00;99.90;;;;;;5088425;28;20051;-67
2023/02/08 00:03:47;;;;;;;18.58;11.57;;;-2.00;99.90;;;;;;5087162;28;20474;-67
2023/02/08 00:06:13;;;;;;;27.63;11.45;;;-2.00;99.90;;;;;;5088297;28;20181;-67
2023/02/08 00:08:40;;;;;;;23.63;11.82;;;-1.90;99.90;;;;;;5086935;28;20497;-67
2023/02/08 00:11:06;;;;;;;21.48;11.02;;;-1.90;99.90;;;;;;5058283;28;20044;-68
2023/02/08 00:13:33;;;;;;;21.40;11.82;;;-1.90;99.90;;;;;;5087727;28;20579;-67
2023/02/08 00:15:59;;;;;;;17.27;11.25;;;-2.00;99.90;;;;;;5088704;28;20039;-67
2023/02/08 00:18:25;;;;;;;20.48;11.50;;;-1.90;99.90;;;;;;5088133;28;20039;-67
2023/02/08 00:20:54;;;;;;;20.70;12.00;;;-1.90;99.90;;;;;;5083861;28;20055;-67
2023/02/08 00:23:20;;;;;;;20.67;11.98;;;-1.90;99.90;;;;;;5089863;28;20056;-67
2023/02/08 00:25:45;;;;;;;21.02;11.88;;;-1.90;99.90;;;;;;5086652;28;20558;-67
2023/02/08 00:28:14;;;;;;;17.13;11.40;;;-1.90;99.90;;;;;;5088239;28;20123;-67
2023/02/08 00:30:40;;;;;;;23.90;12.77;;;-1.80;99.90;;;;;;5087493;28;20040;-67
2023/02/08 00:33:06;;;;;;;20.30;12.27;;;-1.80;99.90;;;;;;5086010;28;20524;-67
2023/02/08 00:35:32;;;;;;;26.48;12.63;;;-1.90;99.90;;;;;;5088008;28;20046;-67
2023/02/08 00:37:58;;;;;;;17.55;11.18;;;-1.90;99.90;;;;;;5087444;28;20167;-67
2023/02/08 00:40:25;;;;;;;18.42;11.77;;;-1.90;99.90;;;;;;5088165;28;20040;-67
2023/02/08 00:42:50;;;;;;;19.83;12.43;;;-1.90;99.90;;;;;;5086186;28;20131;-67
2023/02/08 00:45:16;;;;;;;18.40;12.30;;;-1.90;99.90;;;;;;5087626;28;20549;-67
2023/02/08 00:47:42;;;;;;;21.17;12.77;;;-1.90;99.90;;;;;;5088007;28;20119;-68
2023/02/08 00:50:09;;;;;;;23.38;13.18;;;-1.90;99.90;;;;;;5086189;28;20048;-67
2023/02/08 00:52:37;;;;;;;20.77;12.52;;;-1.90;99.90;;;;;;5069587;28;20449;-67
2023/02/08 00:55:04;;;;;;;23.92;13.77;;;-1.90;99.90;;;;;;5069638;28;20143;-67
2023/02/08 00:57:31;;;;;;;25.85;14.55;;;-1.90;99.90;;;;;;5087813;28;20044;-67
2023/02/08 00:59:58;;;;;;;23.88;14.43;;;-1.90;99.90;;;;;;5086030;28;20084;-67
2023/02/08 01:02:24;;;;;;;24.50;13.27;;;-1.90;99.90;;;;;;5084973;28;20048;-68
2023/02/08 01:04:49;;;;;;;23.40;15.32;;;-1.90;99.90;;;;;;5085539;28;20409;-67
2023/02/08 01:07:15;;;;;;;21.70;13.07;;;-1.90;99.90;;;;;;5086999;28;20097;-68
2023/02/08 01:09:41;;;;;;;25.90;13.85;;;-1.90;99.90;;;;;;5086783;28;20040;-68
2023/02/08 01:12:07;;;;;;;19.38;13.20;;;-1.90;99.90;;;;;;5086090;28;20584;-67
2023/02/08 01:14:33;;;;;;;17.95;13.25;;;-2.00;99.90;;;;;;5087331;28;20057;-67
2023/02/08 01:16:59;;;;;;;25.80;14.18;;;-2.00;99.90;;;;;;5086223;28;20135;-67
2023/02/08 01:19:25;;;;;;;24.08;13.35;;;-2.00;99.90;;;;;;5086607;28;20082;-67
2023/02/08 01:21:51;;;;;;;23.17;13.07;;;-2.00;99.90;;;;;;5083409;28;20056;-67
2023/02/08 01:24:17;;;;;;;20.45;12.27;;;-2.10;99.90;;;;;;5086776;28;20048;-67
2023/02/08 01:26:43;;;;;;;19.42;12.82;;;-2.10;99.90;;;;;;5069100;28;20044;-67
2023/02/08 01:29:09;;;;;;;23.10;13.27;;;-2.10;99.90;;;;;;5086271;28;20047;-68
2023/02/08 01:31:37;;;;;;;24.92;13.93;;;-2.10;99.90;;;;;;5085848;28;20048;-68
2023/02/08 01:34:04;;;;;;;24.40;12.07;;;-2.10;99.90;;;;;;5086800;28;20082;-68
2023/02/08 01:36:31;;;;;;;22.40;13.38;;;-2.20;99.90;;;;;;5069616;28;20494;-68
2023/02/08 01:38:58;;;;;;;20.42;13.40;;;-2.20;99.90;;;;;;5067175;28;20417;-68
2023/02/08 01:41:36;;;;;;;21.02;13.38;;;-2.20;99.90;;;;;;5087172;28;20471;-69
2023/02/08 01:44:04;;;;;;;23.45;13.15;;;-2.20;99.90;;;;;;5086311;28;20044;-68
2023/02/08 01:46:31;;;;;;;22.85;13.05;;;-2.20;99.90;;;;;;5085559;28;20075;-68
2023/02/08 01:49:26;;;;;;;21.60;13.43;;;-2.20;99.90;;;;;;5086279;28;20410;-68
2023/02/08 01:52:02;;;;;;;23.20;13.07;;;-2.20;99.90;;;;;;5081723;28;20048;-68
2023/02/08 01:54:34;;;;;;;20.33;13.45;;;-2.20;99.90;;;;;;5086368;28;20040;-68
2023/02/08 01:57:01;;;;;;;25.88;13.45;;;-2.30;99.90;;;;;;5086130;28;20052;-68
2023/02/08 01:59:37;;;;;;;27.13;14.15;;;-2.20;99.90;;;;;;5085543;28;20055;-68
2023/02/08 02:02:05;;;;;;;28.70;14.75;;;-2.20;99.90;;;;;;5085752;28;20394;-68
2023/02/08 02:04:31;;;;;;;21.15;14.60;;;-2.30;99.90;;;;;;5085223;28;20040;-68
2023/02/08 02:07:00;;;;;;;22.45;14.50;;;-2.20;99.90;;;;;;5086033;28;20523;-68
2023/02/08 02:09:38;;;;;;;24.75;13.55;;;-2.30;99.90;;;;;;5084979;28;20070;-68
2023/02/08 02:12:07;;;;;;;23.95;14.25;;;-2.30;99.90;;;;;;5085317;28;20082;-68
2023/02/08 02:14:34;;;;;;;26.65;15.57;;;-2.30;99.90;;;;;;5086024;28;20074;-68
2023/02/08 02:17:00;;;;;;;21.92;14.05;;;-2.30;99.90;;;;;;5084472;28;20070;-68
2023/02/08 02:19:26;;;;;;;21.95;13.18;;;-2.30;99.90;;;;;;5086965;28;20485;-68
2023/02/08 02:22:17;;;;;;;17.98;12.82;;;-2.30;99.90;;;;;;5082123;28;20066;-68
2023/02/08 02:25:11;;;;;;;19.30;12.50;;;-2.40;99.90;;;;;;5086255;28;20040;-68
2023/02/08 02:27:42;;;;;;;26.45;14.02;;;-2.30;99.90;;;;;;5069144;28;20055;-68
2023/02/08 02:30:42;;;;;;;20.50;12.85;;;-2.30;99.90;;;;;;5084209;28;20481;-68
2023/02/08 02:33:27;;;;;;;24.77;15.05;;;-2.40;99.90;;;;;;5085445;28;20043;-67
2023/02/08 02:35:59;;;;;;;27.60;16.05;;;-2.40;99.90;;;;;;5085742;28;20059;-68
2023/02/08 02:38:55;;;;;;;23.08;14.55;;;-2.40;99.90;;;;;;5084689;28;20047;-68
2023/02/08 02:45:35;;;;;;;25.15;16.13;;;-2.40;99.90;;;;;;5067950;28;20513;-68
2023/02/08 02:48:12;;;;;;;22.55;14.70;;;-2.30;99.90;;;;;;5083735;28;20040;-68
2023/02/08 02:50:48;;;;;;;23.85;14.98;;;-2.30;99.90;;;;;;5068965;28;20505;-68
2023/02/08 02:53:36;;;;;;;25.50;15.38;;;-2.40;99.90;;;;;;5085210;28;20507;-68
2023/02/08 02:56:25;;;;;;;24.20;16.20;;;-2.30;99.90;;;;;;5083729;28;20044;-68
2023/02/08 02:58:55;;;;;;;27.55;15.43;;;-2.40;99.90;;;;;;5080839;28;20090;-68
2023/02/08 03:01:25;;;;;;;24.63;16.05;;;-2.30;99.90;;;;;;5084616;28;20051;-68
2023/02/08 03:03:52;;;;;;;23.02;15.95;;;-2.40;99.90;;;;;;5084853;28;20048;-68
2023/02/08 03:06:35;;;;;;;27.88;16.58;;;-2.40;99.90;;;;;;5085047;28;20036;-68
2023/02/08 03:09:13;;;;;;;24.65;15.38;;;-2.40;99.90;;;;;;5084146;28;20051;-68
2023/02/08 03:11:45;;;;;;;27.33;15.23;;;-2.40;99.90;;;;;;5085764;28;20101;-68
2023/02/08 03:14:43;;;;;;;21.45;13.80;;;-2.40;99.90;;;;;;5084438;28;20121;-68
2023/02/08 03:17:38;;;;;;;23.60;14.65;;;-2.40;99.90;;;;;;5087172;28;20051;-68
2023/02/08 03:20:09;;;;;;;26.08;15.60;;;-2.40;99.90;;;;;;5061729;28;20064;-68
2023/02/08 03:22:59;;;;;;;26.05;16.13;;;-2.50;99.90;;;;;;5087786;28;20131;-68
2023/02/08 03:25:35;;;;;;;30.15;15.63;;;-2.50;99.90;;;;;;5089229;28;20044;-68
2023/02/08 03:28:14;;;;;;;26.17;16.33;;;-2.50;99.90;;;;;;5088527;28;20112;-68
2023/02/08 03:31:03;;;;;;;27.27;15.80;;;-2.50;99.90;;;;;;5089476;28;20451;-68
2023/02/08 03:33:47;;;;;;;27.20;16.83;;;-2.50;99.90;;;;;;5083475;28;20044;-68
2023/02/08 03:36:36;;;;;;;24.52;15.75;;;-2.50;99.90;;;;;;5088526;28;20488;-67
2023/02/08 03:39:07;;;;;;;23.33;14.40;;;-2.50;99.90;;;;;;5088049;28;20063;-68
2023/02/08 03:41:39;;;;;;;28.05;15.82;;;-2.50;99.90;;;;;;5088965;28;20287;-68
2023/02/08 03:44:26;;;;;;;26.60;15.55;;;-2.60;99.90;;;;;;5087167;28;20040;-68
2023/02/08 03:47:00;;;;;;;25.23;15.50;;;-2.60;99.90;;;;;;5090213;28;20044;-68
2023/02/08 03:49:32;;;;;;;26.75;15.18;;;-2.60;99.90;;;;;;5088837;28;20508;-68
2023/02/08 03:52:02;;;;;;;24.98;15.38;;;-2.60;99.90;;;;;;5087579;28;20087;-68
2023/02/08 03:54:33;;;;;;;24.70;16.08;;;-2.60;99.90;;;;;;5090483;28;20054;-68
2023/02/08 03:57:25;;;;;;;25.77;16.98;;;-2.70;99.90;;;;;;5087071;28;20067;-68
2023/02/08 04:00:14;;;;;;;27.70;16.27;;;-2.70;99.90;;;;;;5088496;28;20056;-68
2023/02/08 04:02:56;;;;;;;28.65;17.13;;;-2.70;99.90;;;;;;5088223;28;20114;-68
2023/02/08 04:05:23;;;;;;;27.40;16.65;;;-2.70;99.90;;;;;;5088340;28;20117;-68
2023/02/08 04:07:49;;;;;;;28.38;17.20;;;-2.70;99.90;;;;;;5089190;28;20401;-68
2023/02/08 04:10:15;;;;;;;27.13;17.88;;;-2.70;99.90;;;;;;5086824;28;20084;-68
2023/02/08 04:12:42;;;;;;;27.98;17.58;;;-2.70;99.90;;;;;;5088477;28;20089;-68
2023/02/08 04:15:08;;;;;;;27.77;16.88;;;-2.70;99.90;;;;;;5087547;28;20100;-68
2023/02/08 04:17:34;;;;;;;29.23;17.85;;;-2.60;99.90;;;;;;5087386;28;20052;-68
2023/02/08 04:20:00;;;;;;;25.48;16.55;;;-2.60;99.90;;;;;;5088157;28;20048;-68
2023/02/08 04:22:25;;;;;;;27.17;17.75;;;-2.60;99.90;;;;;;5086338;28;20095;-68
2023/02/08 04:24:51;;;;;;;25.55;17.17;;;-2.60;99.90;;;;;;5071640;28;20516;-68
2023/02/08 04:27:17;;;;;;;25.17;16.23;;;-2.70;99.90;;;;;;5086702;28;20051;-68
2023/02/08 04:29:43;;;;;;;33.20;17.88;;;-2.70;99.90;;;;;;5088342;28;20508;-68
2023/02/08 04:32:10;;;;;;;28.75;18.77;;;-2.70;99.90;;;;;;5069391;28;20044;-68
2023/02/08 04:34:39;;;;;;;31.05;17.88;;;-2.70;99.90;;;;;;5071375;28;20101;-68
2023/02/08 04:37:06;;;;;;;30.38;18.80;;;-2.70;99.90;;;;;;5087647;28;20548;-68
2023/02/08 04:39:33;;;;;;;35.25;18.98;;;-2.70;99.90;;;;;;5087048;28;20052;-68
2023/02/08 04:41:59;;;;;;;31.20;19.10;;;-2.70;99.90;;;;;;5071184;28;20040;-68
2023/02/08 04:44:26;;;;;;;32.72;18.48;;;-2.70;99.90;;;;;;5086206;28;20101;-68
2023/02/08 04:46:52;;;;;;;34.80;19.13;;;-2.70;99.90;;;;;;5088082;28;20405;-68
2023/02/08 04:49:18;;;;;;;28.15;17.95;;;-2.70;99.90;;;;;;5086662;28;20497;-68
2023/02/08 04:51:44;;;;;;;31.42;18.70;;;-2.60;99.90;;;;;;5087640;28;20135;-68
2023/02/08 04:54:09;;;;;;;31.40;19.33;;;-2.60;99.90;;;;;;5088352;28;20531;-68
2023/02/08 04:56:36;;;;;;;24.85;17.27;;;-2.60;99.90;;;;;;5086286;28;20085;-68
2023/02/08 04:59:02;;;;;;;29.50;17.58;;;-2.60;99.90;;;;;;5087544;28;20051;-68
2023/02/08 05:01:28;;;;;;;27.60;19.20;;;-2.70;99.90;;;;;;5086384;28;20079;-68
2023/02/08 05:03:53;;;;;;;31.55;20.17;;;-2.70;99.90;;;;;;5070564;28;20478;-68
2023/02/08 05:06:20;;;;;;;32.03;19.52;;;-2.70;99.90;;;;;;5067298;28;20043;-68
2023/02/08 05:08:45;;;;;;;30.05;18.33;;;-2.70;99.90;;;;;;5069254;28;20035;-68
2023/02/08 05:11:11;;;;;;;29.98;18.88;;;-2.70;99.90;;;;;;5068500;28;20104;-68
2023/02/08 05:13:38;;;;;;;31.42;19.27;;;-2.70;99.90;;;;;;5086446;28;20391;-68
2023/02/08 05:16:03;;;;;;;28.98;18.33;;;-2.70;99.90;;;;;;5086498;28;20039;-68
2023/02/08 05:18:29;;;;;;;36.47;19.85;;;-2.70;99.90;;;;;;5084721;28;20417;-68
2023/02/08 05:20:59;;;;;;;30.88;18.92;;;-2.70;99.90;;;;;;5087284;28;20060;-68
2023/02/08 05:23:26;;;;;;;36.05;18.92;;;-2.70;99.90;;;;;;5068197;28;20052;-68
2023/02/08 05:25:52;;;;;;;31.38;19.33;;;-2.70;99.90;;;;;;5087280;28;20040;-68
2023/02/08 05:28:18;;;;;;;30.63;18.40;;;-2.80;99.90;;;;;;5085117;28;20040;-68
2023/02/08 05:30:45;;;;;;;32.40;19.65;;;-2.80;99.90;;;;;;5086400;28;20046;-68
2023/02/08 05:33:11;;;;;;;32.17;19.00;;;-2.80;99.90;;;;;;5085019;28;20052;-68
2023/02/08 05:35:37;;;;;;;29.15;18.35;;;-2.80;99.90;;;;;;5084896;28;20040;-68
2023/02/08 05:38:03;;;;;;;29.02;18.23;;;-2.80;99.90;;;;;;5086589;28;20070;-68
2023/02/08 05:40:29;;;;;;;28.00;16.13;;;-2.80;99.90;;;;;;5084490;28;20055;-68
2023/02/08 05:42:54;;;;;;;32.03;17.88;;;-2.80;99.90;;;;;;5069701;28;20048;-68
2023/02/08 05:45:20;;;;;;;28.40;17.77;;;-2.90;99.90;;;;;;5051187;28;20051;-68
2023/02/08 05:47:46;;;;;;;27.52;17.77;;;-2.90;99.90;;;;;;5069570;28;20043;-68
2023/02/08 05:50:13;;;;;;;46.88;27.00;;;-3.00;99.90;;;;;;5085938;28;20576;-68
2023/02/08 05:52:39;;;;;;;35.05;21.92;;;-3.00;99.90;;;;;;5085609;28;20443;-68
2023/02/08 05:55:06;;;;;;;32.58;20.83;;;-3.00;99.90;;;;;;5086693;28;20561;-68
2023/02/08 05:57:32;;;;;;;32.95;19.50;;;-3.10;99.90;;;;;;5084698;28;20477;-68
2023/02/08 05:59:58;;;;;;;28.27;17.95;;;-3.00;99.90;;;;;;5069272;28;20135;-68
2023/02/08 06:02:24;;;;;;;33.40;19.00;;;-3.00;99.90;;;;;;5085055;28;20126;-68
2023/02/08 06:04:50;;;;;;;29.45;17.73;;;-3.00;99.90;;;;;;5086665;28;20619;-68
2023/02/08 06:07:15;;;;;;;33.05;17.65;;;-3.00;99.90;;;;;;5085605;28;20510;-68
2023/02/08 06:09:42;;;;;;;29.95;18.52;;;-2.90;99.90;;;;;;5068447;28;20044;-68
2023/02/08 06:12:09;;;;;;;31.00;17.75;;;-2.90;99.90;;;;;;5086068;28;20496;-68
2023/02/08 06:14:34;;;;;;;28.95;18.33;;;-2.90;99.90;;;;;;5067962;28;20040;-68
2023/02/08 06:17:00;;;;;;;33.92;18.58;;;-2.90;99.90;;;;;;5086591;28;20047;-68
2023/02/08 06:19:26;;;;;;;31.55;18.88;;;-2.90;99.90;;;;;;5084365;28;20509;-68
2023/02/08 06:21:52;;;;;;;32.58;20.20;;;-2.90;99.90;;;;;;5085301;28;20114;-68
2023/02/08 06:24:18;;;;;;;33.35;18.25;;;-2.80;99.90;;;;;;5085231;28;20059;-68
2023/02/08 06:26:44;;;;;;;33.25;18.75;;;-2.80;99.90;;;;;;5086813;28;20126;-68
2023/02/08 06:29:09;;;;;;;32.50;18.58;;;-2.80;99.90;;;;;;5084871;28;20128;-68
2023/02/08 06:31:35;;;;;;;30.50;17.98;;;-2.80;99.90;;;;;;5084791;28;20508;-68
2023/02/08 06:34:01;;;;;;;33.75;19.30;;;-2.70;99.90;;;;;;5086194;28;20520;-68
2023/02/08 06:36:27;;;;;;;32.42;19.63;;;-2.80;99.90;;;;;;5067852;28;20143;-68
2023/02/08 06:38:53;;;;;;;29.58;18.63;;;-2.80;99.90;;;;;;5087446;28;20133;-68
2023/02/08 06:41:19;;;;;;;33.72;19.42;;;-2.80;99.90;;;;;;5084165;28;20048;-68
2023/02/08 06:43:45;;;;;;;33.20;18.55;;;-2.80;99.90;;;;;;5085611;28;20090;-68
2023/02/08 06:46:11;;;;;;;29.95;18.27;;;-2.80;99.90;;;;;;5086912;28;20048;-68
2023/02/08 06:48:37;;;;;;;34.88;18.77;;;-2.90;99.90;;;;;;5086145;28;20051;-69
2023/02/08 06:51:03;;;;;;;32.70;20.90;;;-2.80;99.90;;;;;;5083040;28;20097;-68
2023/02/08 06:53:29;;;;;;;34.58;20.40;;;-2.90;99.90;;;;;;5089767;28;20550;-68
2023/02/08 06:55:55;;;;;;;31.42;18.88;;;-2.90;99.90;;;;;;5073424;28;20524;-68
2023/02/08 06:58:21;;;;;;;33.85;19.17;;;-2.90;99.90;;;;;;5088405;28;20106;-68
2023/02/08 07:00:46;;;;;;;31.83;18.77;;;-2.90;99.90;;;;;;5090498;28;20040;-68
2023/02/08 07:03:14;;;;;;;34.42;20.17;;;-2.90;99.90;;;;;;5090189;28;20067;-68
2023/02/08 07:05:40;;;;;;;37.05;19.23;;;-2.90;99.90;;;;;;5089202;28;20046;-69
2023/02/08 07:08:06;;;;;;;32.15;18.83;;;-2.90;99.90;;;;;;5090686;28;20048;-68
2023/02/08 07:10:33;;;;;;;30.75;19.05;;;-2.80;99.90;;;;;;5089482;28;20044;-68
2023/02/08 07:13:00;;;;;;;33.92;19.52;;;-2.90;99.90;;;;;;5089670;28;20083;-68
2023/02/08 07:15:29;;;;;;;45.10;21.00;;;-2.80;99.90;;;;;;5089531;28;20079;-68
2023/02/08 07:17:55;;;;;;;31.20;19.77;;;-2.90;99.90;;;;;;5089495;28;20123;-68
2023/02/08 07:20:21;;;;;;;36.05;19.92;;;-2.80;99.90;;;;;;5089564;28;20050;-68
2023/02/08 07:22:47;;;;;;;33.67;20.08;;;-2.80;99.90;;;;;;5089958;28;20044;-68
2023/02/08 07:25:13;;;;;;;31.88;18.30;;;-2.80;99.90;;;;;;5087923;28;20091;-68
2023/02/08 07:27:39;;;;;;;36.17;20.08;;;-2.80;99.90;;;;;;5071151;28;20382;-68
2023/02/08 07:30:07;;;;;;;34.75;19.13;;;-2.80;99.90;;;;;;5066365;28;20042;-68
2023/02/08 07:32:33;;;;;;;31.05;18.95;;;-2.80;99.90;;;;;;5087876;28;20060;-68
2023/02/08 07:34:59;;;;;;;32.35;19.05;;;-2.80;99.90;;;;;;5088810;28;20047;-68
2023/02/08 07:37:25;;;;;;;37.00;20.95;;;-2.70;99.90;;;;;;5087177;28;20042;-69
2023/02/08 07:39:52;;;;;;;37.10;19.70;;;-2.70;99.90;;;;;;5088055;28;20089;-69
2023/02/08 07:42:17;;;;;;;34.63;19.77;;;-2.70;99.90;;;;;;5088098;28;20050;-69
2023/02/08 07:44:43;;;;;;;39.03;21.30;;;-2.60;99.90;;;;;;5087790;28;20036;-69
2023/02/08 07:47:09;;;;;;;38.28;21.58;;;-2.50;99.90;;;;;;5090147;28;20047;-69
2023/02/08 07:49:35;;;;;;;36.63;19.95;;;-2.40;99.90;;;;;;5086438;28;20032;-69
2023/02/08 07:52:03;;;;;;;36.60;19.10;;;-2.30;99.90;;;;;;5071429;28;20224;-69
2023/02/08 07:54:29;;;;;;;36.88;19.80;;;-2.20;99.90;;;;;;5070468;28;20048;-69
2023/02/08 07:56:55;;;;;;;29.38;16.90;;;-2.20;99.90;;;;;;5087649;28;20379;-69
2023/02/08 07:59:22;;;;;;;33.17;19.27;;;-2.00;99.90;;;;;;5086989;28;20052;-69
2023/02/08 08:01:47;;;;;;;35.90;20.95;;;-1.90;99.90;;;;;;5086307;28;20051;-69
2023/02/08 08:04:13;;;;;;;29.45;17.42;;;-1.80;99.90;;;;;;5087913;28;20108;-69
2023/02/08 08:06:39;;;;;;;35.80;19.58;;;-1.70;99.90;;;;;;5086369;28;20090;-69
2023/02/08 08:09:05;;;;;;;41.40;20.05;;;-1.70;99.90;;;;;;5086262;28;20522;-70
2023/02/08 08:11:31;;;;;;;35.80;18.00;;;-1.60;99.90;;;;;;5086410;28;20036;-67
2023/02/08 08:13:56;;;;;;;28.88;16.67;;;-1.50;99.90;;;;;;5086650;28;20044;-67
2023/02/08 08:16:22;;;;;;;38.08;20.42;;;-1.50;99.90;;;;;;5086381;28;20040;-67
2023/02/08 08:18:49;;;;;;;42.90;20.27;;;-1.40;99.90;;;;;;5087487;28;20055;-67
2023/02/08 08:21:15;;;;;;;37.63;20.63;;;-1.40;99.90;;;;;;5085567;28;20127;-67
2023/02/08 08:23:41;;;;;;;34.45;19.08;;;-1.20;99.90;;;;;;5086553;28;20490;-67
2023/02/08 08:26:10;;;;;;;36.63;19.45;;;-1.20;99.90;;;;;;5086784;28;20070;-67
2023/02/08 08:28:36;;;;;;;35.75;20.75;;;-1.10;99.90;;;;;;5084494;28;20039;-67
2023/02/08 08:31:07;;;;;;;40.75;19.88;;;-1.00;99.90;;;;;;5087010;28;20161;-67
2023/02/08 08:33:33;;;;;;;41.17;21.20;;;-1.00;99.90;;;;;;5083204;28;20113;-67
2023/02/08 08:35:59;;;;;;;42.95;22.70;;;-0.90;99.90;;;;;;5070005;28;20095;-66
2023/02/08 08:38:25;;;;;;;44.15;21.67;;;-0.80;99.90;;;;;;5086151;28;20062;-66
2023/02/08 08:40:50;;;;;;;44.30;21.77;;;-0.70;99.90;;;;;;5086724;28;20139;-67
2023/02/08 08:43:16;;;;;;;42.25;22.88;;;-0.60;99.90;;;;;;5086325;28;20634;-67
2023/02/08 08:45:42;;;;;;;39.97;22.75;;;-0.60;99.90;;;;;;5085084;28;20057;-68
2023/02/08 08:48:08;;;;;;;35.50;18.80;;;-0.50;99.90;;;;;;5070276;28;20109;-67
2023/02/08 08:50:33;;;;;;;41.40;22.15;;;-0.50;99.90;;;;;;5087169;28;20032;-68
2023/02/08 08:52:59;;;;;;;44.38;22.77;;;-0.40;99.90;;;;;;5086501;28;20070;-67
2023/02/08 08:55:27;;;;;;;39.28;21.27;;;-0.40;99.90;;;;;;5096255;28;20449;-67
2023/02/08 08:57:52;;;;;;;35.35;20.67;;;-0.40;99.90;;;;;;5067201;28;20052;-67
2023/02/08 09:00:19;;;;;;;40.97;22.40;;;-0.40;99.90;;;;;;5085745;28;20040;-67
2023/02/08 09:02:44;;;;;;;39.20;22.13;;;-0.50;99.90;;;;;;5084502;28;20051;-67
2023/02/08 09:05:10;;;;;;;44.25;22.42;;;-0.50;99.90;;;;;;5086801;28;20040;-67
2023/02/08 09:07:36;;;;;;;44.13;21.73;;;-0.40;99.90;;;;;;5085811;28;20032;-67
2023/02/08 09:10:02;;;;;;;38.15;21.65;;;-0.40;99.90;;;;;;5086392;28;20062;-67
2023/02/08 09:12:28;;;;;;;45.10;24.13;;;-0.30;99.90;;;;;;5086277;28;20051;-67
2023/02/08 09:14:54;;;;;;;36.92;21.75;;;-0.30;99.90;;;;;;5085621;28;20044;-67
2023/02/08 09:17:20;;;;;;;44.53;23.88;;;-0.20;99.90;;;;;;5086443;28;20444;-67
2023/02/08 09:19:46;;;;;;;38.90;19.88;;;0.00;99.90;;;;;;5085983;28;20044;-67
2023/02/08 09:22:12;;;;;;;39.72;22.30;;;0.00;99.90;;;;;;5086576;28;20060;-67
2023/02/08 09:24:38;;;;;;;45.47;21.92;;;0.20;99.90;;;;;;5082799;28;20050;-67
2023/02/08 09:27:04;;;;;;;41.55;22.58;;;0.30;99.90;;;;;;5086511;28;20091;-67
2023/02/08 09:29:32;;;;;;;43.00;21.63;;;0.40;99.90;;;;;;5084790;28;20090;-67
2023/02/08 09:31:58;;;;;;;44.25;25.02;;;0.50;99.90;;;;;;5087606;28;20471;-67
2023/02/08 09:34:24;;;;;;;41.63;21.85;;;0.50;99.90;;;;;;5085315;28;20082;-67
2023/02/08 09:36:50;;;;;;;41.25;23.25;;;0.70;99.90;;;;;;5102222;28;20505;-67
2023/02/08 09:39:21;;;;;;;43.60;22.48;;;0.80;99.90;;;;;;5084781;28;20490;-67
2023/02/08 09:41:55;;;;;;;41.13;22.65;;;0.90;99.90;;;;;;5083280;28;20055;-67
2023/02/08 09:44:39;;;;;;;39.03;22.80;;;1.00;99.90;;;;;;5100671;28;20484;-67
2023/02/08 09:47:32;;;;;;;43.65;22.88;;;1.00;99.90;;;;;;5083032;28;20046;-67
2023/02/08 09:50:09;;;;;;;42.35;23.73;;;1.10;99.90;;;;;;5084499;28;20188;-67
2023/02/08 09:52:44;;;;;;;40.55;20.02;;;1.20;99.90;;;;;;5084444;28;20043;-67
2023/02/08 09:55:35;;;;;;;39.78;21.08;;;1.30;99.90;;;;;;5084339;28;20042;-67
2023/02/08 09:58:12;;;;;;;40.72;22.27;;;1.30;99.90;;;;;;5086388;28;20062;-67
2023/02/08 10:00:42;;;;;;;35.85;19.95;;;1.40;99.90;;;;;;5084877;28;20613;-67
2023/02/08 10:03:44;;;;;;;47.47;23.70;;;1.40;99.90;;;;;;5085940;28;20394;-67
2023/02/08 10:06:18;;;;;;;30.95;17.95;;;1.50;99.90;;;;;;5083820;28;20130;-67
2023/02/08 10:08:48;;;;;;;36.53;21.80;;;1.70;99.90;;;;;;5077209;28;20787;-67
2023/02/08 10:11:42;;;;;;;33.87;20.83;;;1.70;99.90;;;;;;5085335;28;20453;-67
2023/02/08 10:14:27;;;;;;;37.10;20.70;;;1.80;99.90;;;;;;5084812;28;20081;-67
2023/02/08 10:17:17;;;;;;;38.80;20.75;;;1.80;99.90;;;;;;5074894;28;20058;-67
2023/02/08 10:20:14;;;;;;;38.85;21.63;;;1.90;99.90;;;;;;5086652;28;20494;-67
2023/02/08 10:22:52;;;;;;;32.72;19.52;;;2.00;99.90;;;;;;5083956;28;20085;-67
2023/02/08 10:25:26;;;;;;;33.53;19.42;;;2.00;99.90;;;;;;5083638;28;20313;-67
2023/02/08 10:28:05;;;;;;;34.78;18.63;;;2.10;99.90;;;;;;5085072;28;20032;-67
2023/02/08 10:30:56;;;;;;;32.25;17.15;;;2.20;99.90;;;;;;5085625;28;20043;-67
2023/02/08 10:33:41;;;;;;;36.75;18.13;;;2.20;99.90;;;;;;5098513;28;20040;-67
2023/02/08 10:36:18;;;;;;;35.08;18.00;;;2.30;99.90;;;;;;5085198;28;20040;-67
2023/02/08 10:38:46;;;;;;;38.70;20.40;;;2.40;99.90;;;;;;5078612;28;20550;-67
2023/02/08 10:41:19;;;;;;;33.00;17.98;;;2.40;99.90;;;;;;5085288;28;20723;-67
2023/02/08 10:43:54;;;;;;;32.83;18.15;;;2.50;99.90;;;;;;5084665;28;20068;-67
2023/02/08 10:47:07;;;;;;;32.90;18.27;;;2.50;99.90;;;;;;5084017;28;20058;-67
2023/02/08 10:50:01;;;;;;;31.83;18.70;;;2.60;99.90;;;;;;5081949;28;20052;-67
2023/02/08 10:52:28;;;;;;;32.72;18.45;;;2.70;99.90;;;;;;5078167;28;20528;-67
2023/02/08 10:54:58;;;;;;;31.60;17.90;;;2.80;99.90;;;;;;5085591;28;20524;-67
2023/02/08 10:57:29;;;;;;;35.35;18.95;;;2.90;99.90;;;;;;5068516;28;20040;-67
2023/02/08 11:00:04;;;;;;;34.75;18.48;;;3.00;99.90;;;;;;5083590;28;20048;-67
2023/02/08 11:02:34;;;;;;;29.90;18.88;;;3.00;99.90;;;;;;5084331;28;20052;-67
2023/02/08 11:05:08;;;;;;;30.15;16.63;;;3.00;99.90;;;;;;5084230;28;20097;-67
2023/02/08 11:07:35;;;;;;;30.88;18.65;;;3.10;99.90;;;;;;5084952;28;20497;-67
2023/02/08 11:10:18;;;;;;;31.80;17.17;;;3.10;99.90;;;;;;5084584;28;20083;-67
2023/02/08 11:13:05;;;;;;;26.27;15.57;;;3.20;99.90;;;;;;5067568;28;20545;-67
2023/02/08 11:15:57;;;;;;;36.17;17.58;;;3.20;99.90;;;;;;5085533;28;20439;-67
2023/02/08 11:18:51;;;;;;;32.28;16.70;;;3.30;99.90;;;;;;5078378;28;20484;-67
2023/02/08 11:21:24;;;;;;;26.98;16.30;;;3.40;99.90;;;;;;5081661;28;20056;-67
2023/02/08 11:23:54;;;;;;;28.30;16.00;;;3.40;99.90;;;;;;5083318;28;20051;-71
2023/02/08 11:26:38;;;;;;;26.83;18.00;;;3.50;99.90;;;;;;5082599;28;20060;-67
2023/02/08 11:29:25;;;;;;;30.38;16.75;;;3.60;99.90;;;;;;5072305;28;20081;-67
2023/02/08 11:31:54;;;;;;;27.75;16.35;;;3.70;99.90;;;;;;5097187;28;20052;-67
2023/02/08 11:34:31;;;;;;;29.13;15.55;;;3.80;99.90;;;;;;5079881;28;20409;-66
2023/02/08 11:37:01;;;;;;;32.78;16.63;;;3.90;99.90;;;;;;5083926;28;20059;-66
2023/02/08 11:39:38;;;;;;;26.83;16.50;;;4.00;99.90;;;;;;5086514;28;20044;-66
2023/02/08 11:42:06;;;;;;;29.88;15.75;;;4.00;99.90;;;;;;5086424;28;20329;-66
2023/02/08 11:44:40;;;;;;;29.55;14.90;;;4.10;99.90;;;;;;5084036;28;20046;-66
2023/02/08 11:47:09;;;;;;;22.35;13.10;;;4.10;99.90;;;;;;5058096;28;20531;-66
2023/02/08 11:49:50;;;;;;;25.33;15.00;;;4.20;99.90;;;;;;5088606;28;20555;-66
2023/02/08 11:52:26;;;;;;;26.73;14.27;;;4.30;99.90;;;;;;5078994;28;20321;-66
2023/02/08 11:54:54;;;;;;;23.58;14.95;;;4.30;99.90;;;;;;5085146;28;20403;-66
2023/02/08 11:57:23;;;;;;;22.65;13.93;;;4.40;99.90;;;;;;5088500;28;20082;-65
2023/02/08 11:59:51;;;;;;;21.73;13.73;;;4.50;99.90;;;;;;5088751;28;20090;-66
2023/02/08 12:02:33;;;;;;;22.15;14.60;;;4.50;99.90;;;;;;5087106;28;20059;-66
2023/02/08 12:05:08;;;;;;;21.23;14.07;;;4.60;99.90;;;;;;5086727;28;20060;-66
2023/02/08 12:08:06;;;;;;;19.02;12.07;;;4.60;99.90;;;;;;5089382;28;20217;-65
2023/02/08 12:10:59;;;;;;;17.17;12.10;;;4.70;99.80;;;;;;5089060;28;20132;-66
2023/02/08 12:13:43;;;;;;;19.25;11.40;;;4.70;96.60;;;;;;5069047;28;20113;-66
2023/02/08 12:16:35;;;;;;;18.40;11.30;;;4.80;99.00;;;;;;5089453;28;20052;-66
2023/02/08 12:19:04;;;;;;;16.50;11.60;;;4.90;90.60;;;;;;5088346;28;20088;-66
2023/02/08 12:21:42;;;;;;;17.15;11.98;;;5.00;94.00;;;;;;5087443;28;20051;-66
2023/02/08 12:24:20;;;;;;;17.63;11.77;;;5.00;90.40;;;;;;5087786;28;20063;-66
2023/02/08 12:26:56;;;;;;;18.27;11.75;;;5.10;92.60;;;;;;5086187;28;20125;-66
2023/02/08 12:29:33;;;;;;;17.42;10.70;;;5.10;90.40;;;;;;5086709;28;20489;-66
2023/02/08 12:32:05;;;;;;;17.30;10.48;;;5.20;81.20;;;;;;5085674;28;20048;-66
2023/02/08 12:34:47;;;;;;;19.48;11.63;;;5.20;75.50;;;;;;5081634;28;20042;-66
2023/02/08 12:43:07;;;;;;;17.52;10.10;;;5.40;64.60;;;;;;5082204;28;20868;-66
2023/02/08 12:46:04;;;;;;;16.40;10.85;;;5.50;70.10;;;;;;5084221;28;20499;-66
2023/02/08 12:48:33;;;;;;;16.55;10.95;;;5.60;80.40;;;;;;5086237;28;20036;-66
2023/02/08 12:51:42;;;;;;;18.02;11.18;;;5.60;82.20;;;;;;5086848;28;20040;-66
2023/02/08 12:54:17;;;;;;;15.50;10.73;;;5.70;79.60;;;;;;5066435;28;20060;-66
2023/02/08 12:56:46;;;;;;;15.43;10.25;;;5.80;80.10;;;;;;5084080;28;20066;-66
2023/02/08 12:59:33;;;;;;;19.88;10.98;;;5.80;81.20;;;;;;5083153;28;20059;-66
2023/02/08 13:02:05;;;;;;;17.23;9.45;;;5.90;72.20;;;;;;5086555;28;20044;-67